sensor_id;sensor_type;location;lat;lon;timestamp;pressure;altitude;pressure_sealevel;temperature;humidity
65175;BME280;51761;42.126;24.752;2023-03-21T00:00:57;99576.75;;;11.95;61.84
65175;BME280;51761;42.126;24.752;2023-03-21T00:03:24;99567.16;;;11.77;62.55
65175;BME280;51761;42.126;24.752;2023-03-21T00:05:50;99574.88;;;11.89;62.13
65175;BME280;51761;42.126;24.752;2023-03-21T00:08:22;99571.16;;;11.76;63.32
65175;BME280;51761;42.126;24.752;2023-03-21T00:10:56;99544.31;;;11.78;62.75
65175;BME280;51761;42.126;24.752;2023-03-21T00:13:22;99563.09;;;11.97;62.66
65175;BME280;51761;42.126;24.752;2023-03-21T00:15:48;99561.19;;;11.94;62.46
65175;BME280;51761;42.126;24.752;2023-03-21T00:18:22;99559.50;;;11.97;62.13
65175;BME280;51761;42.126;24.752;2023-03-21T00:20:58;99541.53;;;11.78;62.15
65175;BME280;51761;42.126;24.752;2023-03-21T00:23:25;99553.38;;;11.86;63.10
65175;BME280;51761;42.126;24.752;2023-03-21T00:25:51;99542.25;;;11.82;62.73
65175;BME280;51761;42.126;24.752;2023-03-21T00:28:16;99541.25;;;11.73;63.10
65175;BME280;51761;42.126;24.752;2023-03-21T00:30:42;99547.47;;;11.80;63.06
65175;BME280;51761;42.126;24.752;2023-03-21T00:33:07;99541.59;;;11.75;63.26
65175;BME280;51761;42.126;24.752;2023-03-21T00:35:33;99522.03;;;11.55;63.68
65175;BME280;51761;42.126;24.752;2023-03-21T00:37:58;99529.34;;;11.69;63.26
65175;BME280;51761;42.126;24.752;2023-03-21T00:40:24;99531.88;;;11.63;63.26
65175;BME280;51761;42.126;24.752;2023-03-21T00:42:50;99519.47;;;11.64;63.04
65175;BME280;51761;42.126;24.752;2023-03-21T00:45:16;99531.22;;;11.75;62.57
65175;BME280;51761;42.126;24.752;2023-03-21T00:47:43;99515.81;;;11.67;62.25
65175;BME280;51761;42.126;24.752;2023-03-21T00:50:10;99523.44;;;11.83;62.24
65175;BME280;51761;42.126;24.752;2023-03-21T00:52:36;99520.22;;;11.84;62.83
65175;BME280;51761;42.126;24.752;2023-03-21T00:55:03;99496.22;;;11.67;62.54
65175;BME280;51761;42.126;24.752;2023-03-21T00:57:29;99510.56;;;11.69;62.63
65175;BME280;51761;42.126;24.752;2023-03-21T00:59:55;99511.78;;;11.68;62.71
65175;BME280;51761;42.126;24.752;2023-03-21T01:02:23;99489.47;;;11.65;62.48
65175;BME280;51761;42.126;24.752;2023-03-21T01:04:52;99492.28;;;11.65;62.83
65175;BME280;51761;42.126;24.752;2023-03-21T01:07:18;99506.81;;;11.76;62.87
65175;BME280;51761;42.126;24.752;2023-03-21T01:09:43;99492.97;;;11.69;62.83
65175;BME280;51761;42.126;24.752;2023-03-21T01:12:09;99498.22;;;11.67;63.13
65175;BME280;51761;42.126;24.752;2023-03-21T01:14:35;99469.13;;;11.64;62.92
65175;BME280;51761;42.126;24.752;2023-03-21T01:17:00;99473.56;;;11.62;62.81
65175;BME280;51761;42.126;24.752;2023-03-21T01:19:26;99491.63;;;11.57;63.55
65175;BME280;51761;42.126;24.752;2023-03-21T01:21:53;99490.84;;;11.57;63.49
65175;BME280;51761;42.126;24.752;2023-03-21T01:24:18;99472.25;;;11.47;63.24
65175;BME280;51761;42.126;24.752;2023-03-21T01:26:44;99485.53;;;11.62;63.19
65175;BME280;51761;42.126;24.752;2023-03-21T01:29:09;99474.91;;;11.54;63.48
65175;BME280;51761;42.126;24.752;2023-03-21T01:31:35;99471.13;;;11.64;63.35
65175;BME280;51761;42.126;24.752;2023-03-21T01:34:01;99473.03;;;11.67;63.03
65175;BME280;51761;42.126;24.752;2023-03-21T01:36:26;99483.19;;;11.61;63.56
65175;BME280;51761;42.126;24.752;2023-03-21T01:38:52;99471.41;;;11.50;64.28
65175;BME280;51761;42.126;24.752;2023-03-21T01:41:28;99450.03;;;11.40;64.53
65175;BME280;51761;42.126;24.752;2023-03-21T01:43:54;99470.69;;;11.65;63.90
65175;BME280;51761;42.126;24.752;2023-03-21T01:46:46;99466.81;;;11.59;64.50
65175;BME280;51761;42.126;24.752;2023-03-21T01:49:19;99462.16;;;11.53;64.51
65175;BME280;51761;42.126;24.752;2023-03-21T01:51:53;99461.34;;;11.52;64.31
65175;BME280;51761;42.126;24.752;2023-03-21T01:54:25;99447.47;;;11.29;65.60
65175;BME280;51761;42.126;24.752;2023-03-21T01:56:55;99428.03;;;11.42;64.66
65175;BME280;51761;42.126;24.752;2023-03-21T01:59:42;99447.47;;;11.49;65.27
65175;BME280;51761;42.126;24.752;2023-03-21T02:02:16;99441.66;;;11.40;65.65
65175;BME280;51761;42.126;24.752;2023-03-21T02:04:45;99425.78;;;11.17;66.65
65175;BME280;51761;42.126;24.752;2023-03-21T02:07:18;99424.50;;;11.22;66.22
65175;BME280;51761;42.126;24.752;2023-03-21T02:09:50;99415.22;;;11.05;66.48
65175;BME280;51761;42.126;24.752;2023-03-21T02:12:16;99444.28;;;11.11;66.67
65175;BME280;51761;42.126;24.752;2023-03-21T02:14:44;99413.09;;;10.94;67.12
65175;BME280;51761;42.126;24.752;2023-03-21T02:23:01;99429.44;;;10.95;68.97
65175;BME280;51761;42.126;24.752;2023-03-21T02:30:44;99420.69;;;10.74;69.58
65175;BME280;51761;42.126;24.752;2023-03-21T02:36:14;99444.59;;;10.75;70.65
65175;BME280;51761;42.126;24.752;2023-03-21T02:41:27;99429.22;;;10.44;72.08
65175;BME280;51761;42.126;24.752;2023-03-21T02:46:54;99459.50;;;10.68;72.24
65175;BME280;51761;42.126;24.752;2023-03-21T02:51:52;99461.78;;;10.54;73.25
65175;BME280;51761;42.126;24.752;2023-03-21T02:54:20;99446.50;;;10.58;73.34
65175;BME280;51761;42.126;24.752;2023-03-21T02:56:49;99444.09;;;10.60;72.99
65175;BME280;51761;42.126;24.752;2023-03-21T02:59:18;99451.13;;;10.68;73.17
65175;BME280;51761;42.126;24.752;2023-03-21T03:01:45;99461.81;;;10.73;73.26
65175;BME280;51761;42.126;24.752;2023-03-21T03:04:25;99466.53;;;10.76;73.49
65175;BME280;51761;42.126;24.752;2023-03-21T03:20:23;99470.38;;;10.63;74.05
65175;BME280;51761;42.126;24.752;2023-03-21T03:25:28;99479.13;;;10.65;73.78
65175;BME280;51761;42.126;24.752;2023-03-21T03:27:57;99480.19;;;10.71;73.52
65175;BME280;51761;42.126;24.752;2023-03-21T03:30:24;99487.13;;;10.63;73.84
65175;BME280;51761;42.126;24.752;2023-03-21T03:32:58;99478.94;;;10.52;74.36
65175;BME280;51761;42.126;24.752;2023-03-21T03:35:27;99481.00;;;10.48;74.63
65175;BME280;51761;42.126;24.752;2023-03-21T03:37:56;99481.31;;;10.54;72.67
65175;BME280;51761;42.126;24.752;2023-03-21T03:40:43;99476.19;;;10.49;73.40
65175;BME280;51761;42.126;24.752;2023-03-21T03:43:16;99455.72;;;10.36;72.94
65175;BME280;51761;42.126;24.752;2023-03-21T03:45:50;99445.44;;;10.29;71.78
65175;BME280;51761;42.126;24.752;2023-03-21T03:48:42;99442.13;;;10.15;72.03
65175;BME280;51761;42.126;24.752;2023-03-21T03:51:15;99459.22;;;10.17;72.13
65175;BME280;51761;42.126;24.752;2023-03-21T03:53:54;99462.09;;;10.13;72.21
65175;BME280;51761;42.126;24.752;2023-03-21T03:56:21;99435.56;;;10.02;71.71
65175;BME280;51761;42.126;24.752;2023-03-21T03:58:49;99442.75;;;9.99;71.99
65175;BME280;51761;42.126;24.752;2023-03-21T04:01:15;99456.31;;;10.01;72.03
65175;BME280;51761;42.126;24.752;2023-03-21T04:03:45;99458.50;;;10.13;71.39
65175;BME280;51761;42.126;24.752;2023-03-21T04:06:12;99428.97;;;9.89;71.25
65175;BME280;51761;42.126;24.752;2023-03-21T04:08:37;99434.16;;;9.87;71.41
65175;BME280;51761;42.126;24.752;2023-03-21T04:11:03;99458.75;;;9.95;71.28
65175;BME280;51761;42.126;24.752;2023-03-21T04:13:29;99469.88;;;9.99;70.88
65175;BME280;51761;42.126;24.752;2023-03-21T04:15:54;99460.44;;;9.89;71.16
65175;BME280;51761;42.126;24.752;2023-03-21T04:18:21;99466.44;;;10.14;70.52
65175;BME280;51761;42.126;24.752;2023-03-21T04:20:48;99476.03;;;10.13;70.56
65175;BME280;51761;42.126;24.752;2023-03-21T04:23:16;99477.78;;;10.00;71.00
65175;BME280;51761;42.126;24.752;2023-03-21T04:25:43;99474.50;;;10.09;71.21
65175;BME280;51761;42.126;24.752;2023-03-21T04:28:09;99463.28;;;9.86;70.87
65175;BME280;51761;42.126;24.752;2023-03-21T04:30:35;99449.13;;;9.73;71.35
65175;BME280;51761;42.126;24.752;2023-03-21T04:33:01;99486.41;;;9.86;71.43
65175;BME280;51761;42.126;24.752;2023-03-21T04:35:26;99480.84;;;9.83;72.06
65175;BME280;51761;42.126;24.752;2023-03-21T04:37:53;99475.97;;;9.90;71.70
65175;BME280;51761;42.126;24.752;2023-03-21T04:40:18;99455.84;;;9.79;72.11
65175;BME280;51761;42.126;24.752;2023-03-21T04:42:45;99478.09;;;10.09;71.65
65175;BME280;51761;42.126;24.752;2023-03-21T04:45:12;99460.28;;;9.73;71.91
65175;BME280;51761;42.126;24.752;2023-03-21T04:47:38;99460.38;;;9.66;72.03
65175;BME280;51761;42.126;24.752;2023-03-21T04:50:05;99492.38;;;9.85;72.00
65175;BME280;51761;42.126;24.752;2023-03-21T04:52:31;99488.94;;;10.04;71.90
65175;BME280;51761;42.126;24.752;2023-03-21T04:54:56;99484.91;;;10.08;71.74
65175;BME280;51761;42.126;24.752;2023-03-21T04:57:22;99497.72;;;10.02;71.61
65175;BME280;51761;42.126;24.752;2023-03-21T04:59:47;99494.16;;;9.98;72.07
65175;BME280;51761;42.126;24.752;2023-03-21T05:02:13;99502.03;;;10.07;71.72
65175;BME280;51761;42.126;24.752;2023-03-21T05:04:38;99502.88;;;10.04;71.87
65175;BME280;51761;42.126;24.752;2023-03-21T05:07:04;99482.22;;;9.98;71.77
65175;BME280;51761;42.126;24.752;2023-03-21T05:09:30;99500.41;;;10.09;71.91
65175;BME280;51761;42.126;24.752;2023-03-21T05:11:55;99506.72;;;10.13;72.57
65175;BME280;51761;42.126;24.752;2023-03-21T05:14:24;99491.25;;;10.09;72.88
65175;BME280;51761;42.126;24.752;2023-03-21T05:16:50;99509.34;;;10.47;70.98
65175;BME280;51761;42.126;24.752;2023-03-21T05:19:26;99504.47;;;10.74;69.70
65175;BME280;51761;42.126;24.752;2023-03-21T05:22:06;99501.13;;;10.82;69.42
65175;BME280;51761;42.126;24.752;2023-03-21T05:24:33;99505.28;;;10.74;71.67
65175;BME280;51761;42.126;24.752;2023-03-21T05:26:59;99491.31;;;10.74;71.36
65175;BME280;51761;42.126;24.752;2023-03-21T05:29:29;99485.88;;;10.87;70.33
65175;BME280;51761;42.126;24.752;2023-03-21T05:31:56;99496.25;;;10.86;70.34
65175;BME280;51761;42.126;24.752;2023-03-21T05:34:22;99486.97;;;10.93;69.70
65175;BME280;51761;42.126;24.752;2023-03-21T05:36:47;99470.97;;;10.74;70.01
65175;BME280;51761;42.126;24.752;2023-03-21T05:39:13;99486.03;;;10.80;70.04
65175;BME280;51761;42.126;24.752;2023-03-21T05:41:38;99477.91;;;10.66;69.97
65175;BME280;51761;42.126;24.752;2023-03-21T05:44:04;99475.16;;;10.62;70.31
65175;BME280;51761;42.126;24.752;2023-03-21T05:46:29;99496.09;;;10.74;69.99
65175;BME280;51761;42.126;24.752;2023-03-21T05:48:55;99495.19;;;10.57;70.56
65175;BME280;51761;42.126;24.752;2023-03-21T05:51:20;99464.41;;;10.41;70.83
65175;BME280;51761;42.126;24.752;2023-03-21T05:53:46;99494.06;;;10.55;71.12
65175;BME280;51761;42.126;24.752;2023-03-21T05:56:12;99494.97;;;10.71;70.50
65175;BME280;51761;42.126;24.752;2023-03-21T05:58:38;99478.13;;;10.75;70.26
65175;BME280;51761;42.126;24.752;2023-03-21T06:01:04;99481.53;;;10.86;72.05
65175;BME280;51761;42.126;24.752;2023-03-21T06:03:29;99492.72;;;11.05;72.33
65175;BME280;51761;42.126;24.752;2023-03-21T06:05:55;99499.00;;;11.09;74.04
65175;BME280;51761;42.126;24.752;2023-03-21T06:08:20;99500.16;;;11.11;73.46
65175;BME280;51761;42.126;24.752;2023-03-21T06:10:46;99497.34;;;11.50;71.52
65175;BME280;51761;42.126;24.752;2023-03-21T06:13:11;99481.44;;;11.47;70.91
65175;BME280;51761;42.126;24.752;2023-03-21T06:15:37;99500.84;;;11.74;69.79
65175;BME280;51761;42.126;24.752;2023-03-21T06:18:03;99486.91;;;11.90;68.97
65175;BME280;51761;42.126;24.752;2023-03-21T06:20:28;99495.41;;;12.02;69.04
65175;BME280;51761;42.126;24.752;2023-03-21T06:22:54;99490.34;;;11.97;68.71
65175;BME280;51761;42.126;24.752;2023-03-21T06:25:19;99497.16;;;11.96;69.30
65175;BME280;51761;42.126;24.752;2023-03-21T06:27:46;99493.84;;;12.17;68.66
65175;BME280;51761;42.126;24.752;2023-03-21T06:30:12;99477.75;;;12.21;67.76
65175;BME280;51761;42.126;24.752;2023-03-21T06:32:37;99502.25;;;12.49;67.38
65175;BME280;51761;42.126;24.752;2023-03-21T06:35:03;99481.44;;;12.50;67.57
65175;BME280;51761;42.126;24.752;2023-03-21T06:37:29;99500.69;;;12.48;67.90
65175;BME280;51761;42.126;24.752;2023-03-21T06:39:54;99506.69;;;12.31;68.83
65175;BME280;51761;42.126;24.752;2023-03-21T06:42:20;99488.41;;;12.10;69.29
65175;BME280;51761;42.126;24.752;2023-03-21T06:44:46;99508.28;;;12.32;69.04
65175;BME280;51761;42.126;24.752;2023-03-21T06:47:11;99483.00;;;12.19;70.27
65175;BME280;51761;42.126;24.752;2023-03-21T06:49:36;99491.31;;;12.39;69.26
65175;BME280;51761;42.126;24.752;2023-03-21T06:52:02;99493.47;;;12.63;68.52
65175;BME280;51761;42.126;24.752;2023-03-21T06:54:28;99508.75;;;13.06;67.44
65175;BME280;51761;42.126;24.752;2023-03-21T06:56:53;99508.16;;;13.27;66.38
65175;BME280;51761;42.126;24.752;2023-03-21T06:59:20;99510.59;;;13.13;66.77
65175;BME280;51761;42.126;24.752;2023-03-21T07:01:46;99505.78;;;13.26;67.21
65175;BME280;51761;42.126;24.752;2023-03-21T07:04:11;99525.38;;;13.95;78.03
65175;BME280;51761;42.126;24.752;2023-03-21T07:06:37;99523.03;;;14.06;65.89
65175;BME280;51761;42.126;24.752;2023-03-21T07:09:03;99521.69;;;14.48;65.09
65175;BME280;51761;42.126;24.752;2023-03-21T07:11:30;99509.03;;;14.90;65.44
65175;BME280;51761;42.126;24.752;2023-03-21T07:13:56;99519.91;;;15.34;62.54
65175;BME280;51761;42.126;24.752;2023-03-21T07:16:22;99516.34;;;15.43;69.53
65175;BME280;51761;42.126;24.752;2023-03-21T07:18:49;99494.63;;;15.43;59.87
65175;BME280;51761;42.126;24.752;2023-03-21T07:21:15;99516.78;;;15.84;60.77
65175;BME280;51761;42.126;24.752;2023-03-21T07:23:41;99515.84;;;15.87;58.78
65175;BME280;51761;42.126;24.752;2023-03-21T07:26:07;99506.84;;;15.71;58.52
65175;BME280;51761;42.126;24.752;2023-03-21T07:28:32;99477.88;;;15.61;58.83
65175;BME280;51761;42.126;24.752;2023-03-21T07:31:01;99507.84;;;15.55;59.41
65175;BME280;51761;42.126;24.752;2023-03-21T07:33:29;99485.97;;;15.59;60.84
65175;BME280;51761;42.126;24.752;2023-03-21T07:35:55;99503.41;;;15.45;61.07
65175;BME280;51761;42.126;24.752;2023-03-21T07:38:22;99489.22;;;15.79;66.12
65175;BME280;51761;42.126;24.752;2023-03-21T07:40:48;99501.97;;;16.23;59.49
65175;BME280;51761;42.126;24.752;2023-03-21T07:43:14;99486.44;;;16.49;57.60
65175;BME280;51761;42.126;24.752;2023-03-21T07:45:40;99499.66;;;16.79;56.29
65175;BME280;51761;42.126;24.752;2023-03-21T07:48:07;99498.25;;;17.01;66.40
65175;BME280;51761;42.126;24.752;2023-03-21T07:50:33;99469.72;;;17.26;56.30
65175;BME280;51761;42.126;24.752;2023-03-21T07:52:58;99495.28;;;17.50;54.58
65175;BME280;51761;42.126;24.752;2023-03-21T07:55:24;99499.81;;;17.65;54.67
65175;BME280;51761;42.126;24.752;2023-03-21T07:57:50;99491.19;;;17.24;54.24
65175;BME280;51761;42.126;24.752;2023-03-21T08:00:19;99475.38;;;17.26;59.32
65175;BME280;51761;42.126;24.752;2023-03-21T08:02:53;99490.22;;;17.80;53.15
65175;BME280;51761;42.126;24.752;2023-03-21T08:05:24;99485.69;;;17.74;56.20
65175;BME280;51761;42.126;24.752;2023-03-21T08:07:50;99461.72;;;17.52;53.51
65175;BME280;51761;42.126;24.752;2023-03-21T08:10:17;99487.88;;;17.79;53.31
65175;BME280;51761;42.126;24.752;2023-03-21T08:12:43;99472.59;;;17.94;53.97
65175;BME280;51761;42.126;24.752;2023-03-21T08:15:09;99475.53;;;18.00;53.46
65175;BME280;51761;42.126;24.752;2023-03-21T08:17:34;99486.25;;;17.96;53.12
65175;BME280;51761;42.126;24.752;2023-03-21T08:20:09;99486.97;;;17.73;51.91
65175;BME280;51761;42.126;24.752;2023-03-21T08:22:36;99468.28;;;17.66;53.07
65175;BME280;51761;42.126;24.752;2023-03-21T08:25:03;99489.66;;;18.09;51.60
65175;BME280;51761;42.126;24.752;2023-03-21T08:27:30;99471.19;;;17.90;50.66
65175;BME280;51761;42.126;24.752;2023-03-21T08:29:56;99485.81;;;17.88;52.33
65175;BME280;51761;42.126;24.752;2023-03-21T08:32:22;99481.91;;;18.27;50.79
65175;BME280;51761;42.126;24.752;2023-03-21T08:34:54;99488.03;;;18.35;50.37
65175;BME280;51761;42.126;24.752;2023-03-21T08:37:20;99486.69;;;18.03;51.40
65175;BME280;51761;42.126;24.752;2023-03-21T08:39:46;99466.84;;;17.80;53.05
65175;BME280;51761;42.126;24.752;2023-03-21T08:42:11;99478.25;;;17.85;50.55
65175;BME280;51761;42.126;24.752;2023-03-21T08:44:37;99473.94;;;17.57;50.61
65175;BME280;51761;42.126;24.752;2023-03-21T08:47:04;99450.13;;;17.41;55.64
65175;BME280;51761;42.126;24.752;2023-03-21T08:49:30;99476.88;;;17.72;58.02
65175;BME280;51761;42.126;24.752;2023-03-21T08:51:56;99455.06;;;17.81;50.51
65175;BME280;51761;42.126;24.752;2023-03-21T08:54:21;99461.84;;;17.66;51.81
65175;BME280;51761;42.126;24.752;2023-03-21T08:56:48;99467.56;;;17.48;52.68
65175;BME280;51761;42.126;24.752;2023-03-21T08:59:13;99482.91;;;17.47;52.97
65175;BME280;51761;42.126;24.752;2023-03-21T09:01:39;99467.06;;;17.32;52.48
65175;BME280;51761;42.126;24.752;2023-03-21T09:04:05;99476.97;;;17.18;52.58
65175;BME280;51761;42.126;24.752;2023-03-21T09:06:38;99417.38;;;17.16;51.39
65175;BME280;51761;42.126;24.752;2023-03-21T09:09:06;99467.38;;;17.43;52.38
65175;BME280;51761;42.126;24.752;2023-03-21T09:11:33;99467.31;;;17.78;50.53
65175;BME280;51761;42.126;24.752;2023-03-21T09:13:59;99461.75;;;18.02;48.76
65175;BME280;51761;42.126;24.752;2023-03-21T09:16:26;99466.66;;;18.34;48.63
65175;BME280;51761;42.126;24.752;2023-03-21T09:18:52;99464.56;;;18.67;48.06
65175;BME280;51761;42.126;24.752;2023-03-21T09:21:21;99461.72;;;18.90;46.45
65175;BME280;51761;42.126;24.752;2023-03-21T09:23:48;99467.94;;;19.03;45.99
65175;BME280;51761;42.126;24.752;2023-03-21T09:26:15;99449.19;;;19.29;46.11
65175;BME280;51761;42.126;24.752;2023-03-21T09:28:41;99462.84;;;19.30;46.26
65175;BME280;51761;42.126;24.752;2023-03-21T09:31:07;99450.03;;;19.21;46.53
65175;BME280;51761;42.126;24.752;2023-03-21T09:33:35;99444.59;;;19.31;46.50
65175;BME280;51761;42.126;24.752;2023-03-21T09:36:02;99450.09;;;19.64;45.21
65175;BME280;51761;42.126;24.752;2023-03-21T09:38:31;99455.16;;;19.89;45.08
65175;BME280;51761;42.126;24.752;2023-03-21T09:41:19;99447.94;;;20.02;44.14
65175;BME280;51761;42.126;24.752;2023-03-21T09:49:25;99440.78;;;20.95;41.51
65175;BME280;51761;42.126;24.752;2023-03-21T09:51:57;99436.28;;;21.29;43.12
65175;BME280;51761;42.126;24.752;2023-03-21T09:54:29;99438.22;;;21.37;41.74
65175;BME280;51761;42.126;24.752;2023-03-21T09:57:14;99435.31;;;21.57;41.36
65175;BME280;51761;42.126;24.752;2023-03-21T09:59:45;99429.75;;;21.43;41.03
65175;BME280;51761;42.126;24.752;2023-03-21T10:02:42;99418.91;;;21.21;42.89
65175;BME280;51761;42.126;24.752;2023-03-21T10:05:23;99427.31;;;21.10;43.27
65175;BME280;51761;42.126;24.752;2023-03-21T10:08:26;99421.09;;;20.87;43.13
65175;BME280;51761;42.126;24.752;2023-03-21T10:11:18;99428.13;;;20.91;41.40
65175;BME280;51761;42.126;24.752;2023-03-21T10:13:57;99428.72;;;20.81;43.50
65175;BME280;51761;42.126;24.752;2023-03-21T10:16:29;99422.06;;;20.84;41.67
65175;BME280;51761;42.126;24.752;2023-03-21T10:18:58;99393.31;;;20.56;41.99
65175;BME280;51761;42.126;24.752;2023-03-21T10:21:26;99398.13;;;20.50;43.37
65175;BME280;51761;42.126;24.752;2023-03-21T10:23:54;99402.59;;;20.57;43.05
65175;BME280;51761;42.126;24.752;2023-03-21T10:26:23;99409.22;;;20.68;42.97
65175;BME280;51761;42.126;24.752;2023-03-21T10:28:53;99417.69;;;21.02;42.68
65175;BME280;51761;42.126;24.752;2023-03-21T10:31:22;99408.97;;;20.86;42.78
65175;BME280;51761;42.126;24.752;2023-03-21T10:33:55;99382.25;;;20.58;43.93
65175;BME280;51761;42.126;24.752;2023-03-21T10:36:24;99392.09;;;20.63;43.43
65175;BME280;51761;42.126;24.752;2023-03-21T10:39:03;99397.47;;;20.21;43.46
65175;BME280;51761;42.126;24.752;2023-03-21T10:41:29;99400.25;;;20.01;43.65
65175;BME280;51761;42.126;24.752;2023-03-21T10:44:09;99390.25;;;19.91;44.49
65175;BME280;51761;42.126;24.752;2023-03-21T10:46:36;99368.44;;;19.97;43.97
65175;BME280;51761;42.126;24.752;2023-03-21T10:49:02;99359.84;;;19.91;44.97
65175;BME280;51761;42.126;24.752;2023-03-21T10:51:31;99378.13;;;20.05;44.75
65175;BME280;51761;42.126;24.752;2023-03-21T10:54:02;99376.78;;;19.86;44.38
65175;BME280;51761;42.126;24.752;2023-03-21T10:56:34;99371.31;;;19.82;44.86
65175;BME280;51761;42.126;24.752;2023-03-21T10:59:01;99366.38;;;19.97;43.39
65175;BME280;51761;42.126;24.752;2023-03-21T11:01:39;99367.38;;;19.94;43.43
65175;BME280;51761;42.126;24.752;2023-03-21T11:04:15;99369.69;;;19.61;44.23
65175;BME280;51761;42.126;24.752;2023-03-21T11:06:43;99363.13;;;19.70;43.60
65175;BME280;51761;42.126;24.752;2023-03-21T11:09:18;99346.72;;;19.59;44.62
65175;BME280;51761;42.126;24.752;2023-03-21T11:12:00;99352.38;;;19.74;43.44
65175;BME280;51761;42.126;24.752;2023-03-21T11:14:36;99334.78;;;19.70;44.06
65175;BME280;51761;42.126;24.752;2023-03-21T11:17:27;99321.09;;;19.68;44.30
65175;BME280;51761;42.126;24.752;2023-03-21T11:19:57;99321.28;;;19.79;44.96
65175;BME280;51761;42.126;24.752;2023-03-21T11:22:27;99293.00;;;19.65;43.71
65175;BME280;51761;42.126;24.752;2023-03-21T11:24:58;99317.28;;;19.86;44.73
65175;BME280;51761;42.126;24.752;2023-03-21T11:27:28;99314.84;;;20.13;43.93
65175;BME280;51761;42.126;24.752;2023-03-21T11:29:56;99297.22;;;19.89;44.25
65175;BME280;51761;42.126;24.752;2023-03-21T11:32:31;99320.25;;;19.97;43.14
65175;BME280;51761;42.126;24.752;2023-03-21T11:35:22;99314.50;;;20.06;42.99
65175;BME280;51761;42.126;24.752;2023-03-21T11:37:50;99288.72;;;20.24;43.70
65175;BME280;51761;42.126;24.752;2023-03-21T11:42:47;99304.69;;;20.67;43.22
65175;BME280;51761;42.126;24.752;2023-03-21T11:45:31;99284.06;;;20.86;43.20
65175;BME280;51761;42.126;24.752;2023-03-21T11:47:59;99275.03;;;21.13;42.85
65175;BME280;51761;42.126;24.752;2023-03-21T11:50:39;99281.13;;;21.31;42.69
65175;BME280;51761;42.126;24.752;2023-03-21T12:22:36;99256.22;;;20.45;44.23
65175;BME280;51761;42.126;24.752;2023-03-21T12:25:11;99250.13;;;20.32;45.66
65175;BME280;51761;42.126;24.752;2023-03-21T12:27:56;99257.22;;;20.42;44.93
65175;BME280;51761;42.126;24.752;2023-03-21T12:35:40;99239.66;;;20.18;46.55
65175;BME280;51761;42.126;24.752;2023-03-21T12:43:49;99220.59;;;19.84;46.98
65175;BME280;51761;42.126;24.752;2023-03-21T12:49:11;99217.22;;;19.80;47.73
65175;BME280;51761;42.126;24.752;2023-03-21T12:51:42;99192.03;;;19.47;47.78
65175;BME280;51761;42.126;24.752;2023-03-21T12:54:30;99218.97;;;19.57;48.06
65175;BME280;51761;42.126;24.752;2023-03-21T12:57:20;99226.19;;;19.58;48.02
65175;BME280;51761;42.126;24.752;2023-03-21T12:59:59;99203.72;;;19.55;48.45
65175;BME280;51761;42.126;24.752;2023-03-21T13:05:41;99216.31;;;19.54;48.69
65175;BME280;51761;42.126;24.752;2023-03-21T13:07:57;99211.03;;;19.27;49.60
65175;BME280;51761;42.126;24.752;2023-03-21T13:10:23;99213.19;;;19.32;49.81
65175;BME280;51761;42.126;24.752;2023-03-21T13:21:56;99202.16;;;19.05;51.91
65175;BME280;51761;42.126;24.752;2023-03-21T13:24:39;99201.59;;;19.16;51.27
65175;BME280;51761;42.126;24.752;2023-03-21T13:29:52;99207.13;;;19.24;50.87
65175;BME280;51761;42.126;24.752;2023-03-21T13:32:33;99197.28;;;19.20;49.74
65175;BME280;51761;42.126;24.752;2023-03-21T13:37:49;99178.81;;;19.24;49.46
65175;BME280;51761;42.126;24.752;2023-03-21T13:46:08;99150.31;;;19.13;51.19
65175;BME280;51761;42.126;24.752;2023-03-21T13:51:05;99170.81;;;19.23;49.72
65175;BME280;51761;42.126;24.752;2023-03-21T13:53:35;99169.53;;;19.24;49.87
65175;BME280;51761;42.126;24.752;2023-03-21T14:04:18;99151.69;;;19.18;50.16
65175;BME280;51761;42.126;24.752;2023-03-21T14:06:53;99124.59;;;18.97;50.51
65175;BME280;51761;42.126;24.752;2023-03-21T14:11:52;99147.81;;;19.01;51.91
65175;BME280;51761;42.126;24.752;2023-03-21T14:14:23;99142.97;;;18.87;51.86
65175;BME280;51761;42.126;24.752;2023-03-21T14:16:54;99123.06;;;18.82;51.00
65175;BME280;51761;42.126;24.752;2023-03-21T14:19:19;99115.97;;;18.72;51.24
65175;BME280;51761;42.126;24.752;2023-03-21T14:21:52;99147.66;;;18.76;51.81
65175;BME280;51761;42.126;24.752;2023-03-21T14:24:20;99151.16;;;18.71;51.85
65175;BME280;51761;42.126;24.752;2023-03-21T14:26:48;99135.47;;;18.70;51.67
65175;BME280;51761;42.126;24.752;2023-03-21T14:29:28;99145.63;;;18.62;52.65
65175;BME280;51761;42.126;24.752;2023-03-21T14:31:55;99144.72;;;18.70;52.44
65175;BME280;51761;42.126;24.752;2023-03-21T14:34:22;99114.41;;;18.42;53.63
65175;BME280;51761;42.126;24.752;2023-03-21T14:36:49;99118.00;;;18.42;53.98
65175;BME280;51761;42.126;24.752;2023-03-21T14:39:19;99147.78;;;18.52;53.26
65175;BME280;51761;42.126;24.752;2023-03-21T14:41:54;99143.75;;;18.73;52.60
65175;BME280;51761;42.126;24.752;2023-03-21T14:44:25;99143.44;;;18.71;52.50
65175;BME280;51761;42.126;24.752;2023-03-21T14:47:04;99126.50;;;18.57;52.69
65175;BME280;51761;42.126;24.752;2023-03-21T14:49:34;99134.31;;;18.62;52.84
65175;BME280;51761;42.126;24.752;2023-03-21T14:52:02;99134.41;;;18.53;53.35
65175;BME280;51761;42.126;24.752;2023-03-21T14:54:29;99127.56;;;18.45;53.15
65175;BME280;51761;42.126;24.752;2023-03-21T14:57:01;99134.03;;;18.45;53.28
65175;BME280;51761;42.126;24.752;2023-03-21T14:59:32;99132.66;;;18.41;53.29
65175;BME280;51761;42.126;24.752;2023-03-21T15:02:00;99120.19;;;18.47;52.79
65175;BME280;51761;42.126;24.752;2023-03-21T15:04:28;99129.03;;;18.40;53.45
65175;BME280;51761;42.126;24.752;2023-03-21T15:07:01;99126.22;;;18.40;53.51